sensor_id;sensor_type;location;lat;lon;timestamp;pressure;altitude;pressure_sealevel;temperature;humidity
70468;BME280;57934;51.532;7.684;2023-06-14T00:02:11;100188.91;;;17.75;nan
70468;BME280;57934;51.532;7.684;2023-06-14T00:04:38;100183.69;;;17.80;nan
70468;BME280;57934;51.532;7.684;2023-06-14T00:07:05;100183.81;;;17.73;nan
70468;BME280;57934;51.532;7.684;2023-06-14T00:09:34;100187.31;;;17.91;nan
70468;BME280;57934;51.532;7.684;2023-06-14T00:12:00;100190.31;;;17.77;nan
70468;BME280;57934;51.532;7.684;2023-06-14T00:14:26;100192.84;;;17.72;nan
70468;BME280;57934;51.532;7.684;2023-06-14T00:16:53;100193.69;;;17.56;nan
70468;BME280;57934;51.532;7.684;2023-06-14T00:19:20;100204.34;;;17.56;nan
70468;BME280;57934;51.532;7.684;2023-06-14T00:21:46;100205.00;;;17.63;nan
70468;BME280;57934;51.532;7.684;2023-06-14T00:24:13;100204.41;;;17.61;nan
70468;BME280;57934;51.532;7.684;2023-06-14T00:26:39;100208.28;;;17.53;nan
70468;BME280;57934;51.532;7.684;2023-06-14T00:29:05;100201.34;;;17.52;nan
70468;BME280;57934;51.532;7.684;2023-06-14T00:31:31;100208.69;;;17.45;nan
70468;BME280;57934;51.532;7.684;2023-06-14T00:33:57;100202.22;;;17.58;nan
70468;BME280;57934;51.532;7.684;2023-06-14T00:36:23;100203.75;;;17.54;nan
70468;BME280;57934;51.532;7.684;2023-06-14T00:38:49;100206.84;;;17.46;nan
70468;BME280;57934;51.532;7.684;2023-06-14T00:41:15;100200.25;;;17.36;nan
70468;BME280;57934;51.532;7.684;2023-06-14T00:43:42;100205.84;;;17.35;nan
70468;BME280;57934;51.532;7.684;2023-06-14T00:46:08;100208.13;;;17.43;nan
70468;BME280;57934;51.532;7.684;2023-06-14T00:48:37;100205.13;;;17.39;nan
70468;BME280;57934;51.532;7.684;2023-06-14T00:51:03;100215.19;;;17.21;nan
70468;BME280;57934;51.532;7.684;2023-06-14T00:53:30;100211.06;;;17.30;nan
70468;BME280;57934;51.532;7.684;2023-06-14T00:56:00;100209.59;;;17.22;nan
70468;BME280;57934;51.532;7.684;2023-06-14T00:58:26;100215.53;;;17.24;nan
70468;BME280;57934;51.532;7.684;2023-06-14T01:00:55;100216.00;;;17.21;nan
70468;BME280;57934;51.532;7.684;2023-06-14T01:03:23;100219.13;;;17.18;nan
70468;BME280;57934;51.532;7.684;2023-06-14T01:05:56;100223.31;;;17.14;nan
70468;BME280;57934;51.532;7.684;2023-06-14T01:08:47;100223.72;;;16.94;nan
70468;BME280;57934;51.532;7.684;2023-06-14T01:11:38;100228.94;;;17.01;nan
70468;BME280;57934;51.532;7.684;2023-06-14T01:14:07;100228.97;;;16.77;nan
70468;BME280;57934;51.532;7.684;2023-06-14T01:16:37;100231.84;;;16.87;nan
70468;BME280;57934;51.532;7.684;2023-06-14T01:19:07;100235.06;;;17.01;nan
70468;BME280;57934;51.532;7.684;2023-06-14T01:21:40;100229.78;;;16.78;nan
70468;BME280;57934;51.532;7.684;2023-06-14T01:24:14;100237.66;;;16.84;nan
70468;BME280;57934;51.532;7.684;2023-06-14T01:26:41;100231.41;;;16.67;nan
70468;BME280;57934;51.532;7.684;2023-06-14T01:29:14;100231.56;;;16.60;nan
70468;BME280;57934;51.532;7.684;2023-06-14T01:31:46;100234.91;;;16.56;nan
70468;BME280;57934;51.532;7.684;2023-06-14T01:34:20;100232.56;;;16.59;nan
70468;BME280;57934;51.532;7.684;2023-06-14T01:36:52;100229.22;;;16.52;nan
70468;BME280;57934;51.532;7.684;2023-06-14T01:39:22;100235.84;;;16.38;nan
70468;BME280;57934;51.532;7.684;2023-06-14T01:41:49;100232.97;;;16.39;nan
70468;BME280;57934;51.532;7.684;2023-06-14T01:44:18;100233.31;;;16.31;nan
70468;BME280;57934;51.532;7.684;2023-06-14T01:46:45;100235.28;;;16.24;nan
70468;BME280;57934;51.532;7.684;2023-06-14T01:49:12;100235.28;;;16.36;nan
70468;BME280;57934;51.532;7.684;2023-06-14T01:51:38;100241.50;;;16.18;nan
70468;BME280;57934;51.532;7.684;2023-06-14T01:54:04;100241.41;;;16.13;nan
70468;BME280;57934;51.532;7.684;2023-06-14T01:56:31;100245.91;;;16.24;nan
70468;BME280;57934;51.532;7.684;2023-06-14T01:58:58;100229.72;;;16.37;nan
70468;BME280;57934;51.532;7.684;2023-06-14T02:01:25;100235.28;;;16.24;nan
70468;BME280;57934;51.532;7.684;2023-06-14T02:03:52;100236.19;;;16.06;nan
70468;BME280;57934;51.532;7.684;2023-06-14T02:06:19;100231.69;;;15.95;nan
70468;BME280;57934;51.532;7.684;2023-06-14T02:08:45;100230.28;;;15.92;nan
70468;BME280;57934;51.532;7.684;2023-06-14T02:11:11;100230.06;;;15.94;nan
70468;BME280;57934;51.532;7.684;2023-06-14T02:13:37;100226.38;;;15.95;nan
70468;BME280;57934;51.532;7.684;2023-06-14T02:16:03;100226.72;;;15.87;nan
70468;BME280;57934;51.532;7.684;2023-06-14T02:18:30;100222.19;;;15.99;nan
70468;BME280;57934;51.532;7.684;2023-06-14T02:20:56;100223.69;;;15.83;nan
70468;BME280;57934;51.532;7.684;2023-06-14T02:23:22;100231.69;;;15.83;nan
70468;BME280;57934;51.532;7.684;2023-06-14T02:25:48;100235.81;;;15.79;nan
70468;BME280;57934;51.532;7.684;2023-06-14T02:28:14;100228.44;;;15.93;nan
70468;BME280;57934;51.532;7.684;2023-06-14T02:30:40;100245.78;;;15.84;nan
70468;BME280;57934;51.532;7.684;2023-06-14T02:33:06;100240.41;;;15.72;nan
70468;BME280;57934;51.532;7.684;2023-06-14T02:35:33;100235.13;;;15.84;nan
70468;BME280;57934;51.532;7.684;2023-06-14T02:37:59;100247.09;;;15.63;nan
70468;BME280;57934;51.532;7.684;2023-06-14T02:40:26;100244.53;;;15.56;nan
70468;BME280;57934;51.532;7.684;2023-06-14T02:42:52;100240.91;;;15.69;nan
70468;BME280;57934;51.532;7.684;2023-06-14T02:45:18;100245.41;;;15.50;nan
70468;BME280;57934;51.532;7.684;2023-06-14T02:47:45;100243.91;;;15.42;nan
70468;BME280;57934;51.532;7.684;2023-06-14T02:50:12;100247.53;;;15.60;nan
70468;BME280;57934;51.532;7.684;2023-06-14T02:52:38;100249.13;;;15.49;nan
70468;BME280;57934;51.532;7.684;2023-06-14T02:55:08;100248.94;;;15.32;nan
70468;BME280;57934;51.532;7.684;2023-06-14T02:57:35;100244.88;;;15.30;nan
70468;BME280;57934;51.532;7.684;2023-06-14T03:00:02;100247.25;;;15.38;nan
70468;BME280;57934;51.532;7.684;2023-06-14T03:02:33;100254.97;;;15.39;nan
70468;BME280;57934;51.532;7.684;2023-06-14T03:04:59;100247.25;;;15.38;nan
70468;BME280;57934;51.532;7.684;2023-06-14T03:07:29;100260.47;;;15.26;nan
70468;BME280;57934;51.532;7.684;2023-06-14T03:09:56;100264.16;;;15.25;nan
70468;BME280;57934;51.532;7.684;2023-06-14T03:12:22;100264.44;;;15.35;nan
70468;BME280;57934;51.532;7.684;2023-06-14T03:14:49;100263.41;;;15.36;nan
70468;BME280;57934;51.532;7.684;2023-06-14T03:17:19;100264.16;;;15.25;nan
70468;BME280;57934;51.532;7.684;2023-06-14T03:19:46;100272.88;;;15.14;nan
70468;BME280;57934;51.532;7.684;2023-06-14T03:22:13;100269.94;;;15.03;nan
70468;BME280;57934;51.532;7.684;2023-06-14T03:24:40;100274.00;;;15.06;nan
70468;BME280;57934;51.532;7.684;2023-06-14T03:27:10;100275.75;;;15.12;nan
70468;BME280;57934;51.532;7.684;2023-06-14T03:29:41;100283.00;;;15.05;nan
70468;BME280;57934;51.532;7.684;2023-06-14T03:32:08;100279.53;;;15.04;nan
70468;BME280;57934;51.532;7.684;2023-06-14T03:34:37;100282.41;;;15.03;nan
70468;BME280;57934;51.532;7.684;2023-06-14T03:37:10;100290.06;;;15.11;nan
70468;BME280;57934;51.532;7.684;2023-06-14T03:39:36;100292.25;;;15.02;nan
70468;BME280;57934;51.532;7.684;2023-06-14T03:42:03;100290.06;;;15.11;nan
70468;BME280;57934;51.532;7.684;2023-06-14T03:44:29;100287.84;;;15.26;nan
70468;BME280;57934;51.532;7.684;2023-06-14T03:46:56;100300.38;;;15.19;nan
70468;BME280;57934;51.532;7.684;2023-06-14T03:49:23;100305.88;;;15.06;nan
70468;BME280;57934;51.532;7.684;2023-06-14T03:51:49;100310.28;;;15.12;nan
70468;BME280;57934;51.532;7.684;2023-06-14T03:54:18;100315.91;;;15.04;nan
70468;BME280;57934;51.532;7.684;2023-06-14T03:56:44;100311.41;;;15.04;nan
70468;BME280;57934;51.532;7.684;2023-06-14T03:59:13;100319.97;;;15.07;nan
70468;BME280;57934;51.532;7.684;2023-06-14T04:01:39;100327.44;;;15.16;nan
70468;BME280;57934;51.532;7.684;2023-06-14T04:04:11;100322.69;;;15.18;nan
70468;BME280;57934;51.532;7.684;2023-06-14T04:06:38;100327.63;;;15.15;nan
70468;BME280;57934;51.532;7.684;2023-06-14T04:09:06;100334.44;;;14.92;nan
70468;BME280;57934;51.532;7.684;2023-06-14T04:11:33;100328.22;;;14.98;nan
70468;BME280;57934;51.532;7.684;2023-06-14T04:13:59;100339.56;;;14.87;nan
70468;BME280;57934;51.532;7.684;2023-06-14T04:16:27;100337.16;;;14.86;nan
70468;BME280;57934;51.532;7.684;2023-06-14T04:18:55;100341.78;;;14.90;nan
70468;BME280;57934;51.532;7.684;2023-06-14T04:21:22;100350.50;;;14.97;nan
70468;BME280;57934;51.532;7.684;2023-06-14T04:23:50;100346.28;;;14.90;nan
70468;BME280;57934;51.532;7.684;2023-06-14T04:26:20;100357.34;;;14.87;nan
70468;BME280;57934;51.532;7.684;2023-06-14T04:28:47;100354.50;;;14.88;nan
70468;BME280;57934;51.532;7.684;2023-06-14T04:31:13;100353.53;;;15.01;nan
70468;BME280;57934;51.532;7.684;2023-06-14T04:33:40;100351.16;;;14.93;nan
70468;BME280;57934;51.532;7.684;2023-06-14T04:36:12;100359.19;;;15.04;nan
70468;BME280;57934;51.532;7.684;2023-06-14T04:38:40;100363.19;;;15.14;nan
70468;BME280;57934;51.532;7.684;2023-06-14T04:41:07;100365.25;;;15.12;nan
70468;BME280;57934;51.532;7.684;2023-06-14T04:43:38;100367.63;;;15.20;nan
70468;BME280;57934;51.532;7.684;2023-06-14T04:46:05;100372.03;;;15.26;nan
70468;BME280;57934;51.532;7.684;2023-06-14T04:48:37;100371.44;;;15.42;nan
70468;BME280;57934;51.532;7.684;2023-06-14T04:51:03;100371.75;;;15.34;nan
70468;BME280;57934;51.532;7.684;2023-06-14T04:53:30;100371.44;;;15.61;nan
70468;BME280;57934;51.532;7.684;2023-06-14T04:55:57;100370.19;;;15.45;nan
70468;BME280;57934;51.532;7.684;2023-06-14T04:58:24;100378.38;;;15.43;nan
70468;BME280;57934;51.532;7.684;2023-06-14T05:00:50;100378.69;;;15.35;nan
70468;BME280;57934;51.532;7.684;2023-06-14T05:03:16;100380.91;;;15.38;nan
70468;BME280;57934;51.532;7.684;2023-06-14T05:05:44;100381.34;;;15.35;nan
70468;BME280;57934;51.532;7.684;2023-06-14T05:08:12;100385.06;;;15.34;nan
70468;BME280;57934;51.532;7.684;2023-06-14T05:10:38;100383.94;;;15.42;nan
70468;BME280;57934;51.532;7.684;2023-06-14T05:13:05;100387.25;;;15.56;nan
70468;BME280;57934;51.532;7.684;2023-06-14T05:15:31;100386.13;;;15.63;nan
70468;BME280;57934;51.532;7.684;2023-06-14T05:17:58;100388.78;;;15.63;nan
70468;BME280;57934;51.532;7.684;2023-06-14T05:20:24;100382.13;;;15.54;nan
70468;BME280;57934;51.532;7.684;2023-06-14T05:22:53;100392.41;;;15.50;nan
70468;BME280;57934;51.532;7.684;2023-06-14T05:25:20;100391.44;;;15.63;nan
70468;BME280;57934;51.532;7.684;2023-06-14T05:27:47;100388.72;;;15.70;nan
70468;BME280;57934;51.532;7.684;2023-06-14T05:30:15;100377.25;;;15.88;nan
70468;BME280;57934;51.532;7.684;2023-06-14T05:32:42;100384.50;;;15.81;nan
70468;BME280;57934;51.532;7.684;2023-06-14T05:35:08;100390.53;;;15.88;nan
70468;BME280;57934;51.532;7.684;2023-06-14T05:37:35;100394.53;;;16.09;nan
70468;BME280;57934;51.532;7.684;2023-06-14T05:40:02;100390.28;;;16.19;nan
70468;BME280;57934;51.532;7.684;2023-06-14T05:42:31;100388.41;;;16.50;nan
70468;BME280;57934;51.532;7.684;2023-06-14T05:44:57;100401.06;;;16.78;nan
70468;BME280;57934;51.532;7.684;2023-06-14T05:47:23;100403.38;;;17.10;nan
70468;BME280;57934;51.532;7.684;2023-06-14T05:49:49;100405.25;;;17.09;nan
70468;BME280;57934;51.532;7.684;2023-06-14T05:52:15;100411.22;;;17.28;nan
70468;BME280;57934;51.532;7.684;2023-06-14T05:54:41;100403.16;;;17.63;nan
70468;BME280;57934;51.532;7.684;2023-06-14T05:57:07;100408.09;;;18.12;nan
70468;BME280;57934;51.532;7.684;2023-06-14T05:59:33;100401.63;;;18.42;nan
70468;BME280;57934;51.532;7.684;2023-06-14T06:01:59;100406.34;;;18.68;nan
70468;BME280;57934;51.532;7.684;2023-06-14T06:04:25;100402.63;;;18.86;nan
70468;BME280;57934;51.532;7.684;2023-06-14T06:06:51;100402.53;;;18.30;nan
70468;BME280;57934;51.532;7.684;2023-06-14T06:09:17;100407.72;;;18.88;nan
70468;BME280;57934;51.532;7.684;2023-06-14T06:11:44;100405.97;;;18.76;nan
70468;BME280;57934;51.532;7.684;2023-06-14T06:14:10;100402.00;;;19.18;nan
70468;BME280;57934;51.532;7.684;2023-06-14T06:16:36;100409.91;;;18.91;nan
70468;BME280;57934;51.532;7.684;2023-06-14T06:19:02;100413.47;;;18.29;nan
70468;BME280;57934;51.532;7.684;2023-06-14T06:21:28;100409.97;;;18.45;nan
70468;BME280;57934;51.532;7.684;2023-06-14T06:23:54;100402.38;;;18.88;nan
70468;BME280;57934;51.532;7.684;2023-06-14T06:26:22;100405.44;;;18.46;nan
70468;BME280;57934;51.532;7.684;2023-06-14T06:28:48;100409.69;;;18.75;nan
70468;BME280;57934;51.532;7.684;2023-06-14T06:31:14;100404.13;;;18.31;nan
70468;BME280;57934;51.532;7.684;2023-06-14T06:33:40;100403.59;;;18.46;nan
70468;BME280;57934;51.532;7.684;2023-06-14T06:36:07;100409.41;;;18.60;nan
70468;BME280;57934;51.532;7.684;2023-06-14T06:38:33;100409.09;;;18.90;nan
70468;BME280;57934;51.532;7.684;2023-06-14T06:40:59;100415.97;;;19.42;nan
70468;BME280;57934;51.532;7.684;2023-06-14T06:43:25;100417.13;;;19.51;nan
70468;BME280;57934;51.532;7.684;2023-06-14T06:45:51;100425.31;;;19.83;nan
70468;BME280;57934;51.532;7.684;2023-06-14T06:48:17;100421.22;;;20.02;nan
70468;BME280;57934;51.532;7.684;2023-06-14T06:50:43;100427.94;;;20.05;nan
70468;BME280;57934;51.532;7.684;2023-06-14T06:53:09;100424.91;;;20.23;nan
70468;BME280;57934;51.532;7.684;2023-06-14T06:55:35;100435.25;;;20.74;nan
70468;BME280;57934;51.532;7.684;2023-06-14T06:58:01;100444.19;;;20.85;nan
70468;BME280;57934;51.532;7.684;2023-06-14T07:00:27;100441.59;;;20.36;nan
70468;BME280;57934;51.532;7.684;2023-06-14T07:02:53;100442.59;;;20.52;nan
70468;BME280;57934;51.532;7.684;2023-06-14T07:05:20;100453.38;;;20.08;nan
70468;BME280;57934;51.532;7.684;2023-06-14T07:07:46;100449.16;;;20.12;nan
70468;BME280;57934;51.532;7.684;2023-06-14T07:10:12;100446.72;;;19.83;nan
70468;BME280;57934;51.532;7.684;2023-06-14T07:12:38;100448.81;;;20.30;nan
70468;BME280;57934;51.532;7.684;2023-06-14T07:15:08;100458.97;;;20.55;nan
70468;BME280;57934;51.532;7.684;2023-06-14T07:17:35;100454.97;;;20.58;nan
70468;BME280;57934;51.532;7.684;2023-06-14T07:20:02;100461.09;;;20.26;nan
70468;BME280;57934;51.532;7.684;2023-06-14T07:22:33;100454.72;;;20.05;nan
70468;BME280;57934;51.532;7.684;2023-06-14T07:24:59;100456.13;;;20.13;nan
70468;BME280;57934;51.532;7.684;2023-06-14T07:27:25;100452.28;;;20.03;nan
70468;BME280;57934;51.532;7.684;2023-06-14T07:29:51;100455.44;;;20.22;nan
70468;BME280;57934;51.532;7.684;2023-06-14T07:32:17;100454.16;;;20.89;nan
70468;BME280;57934;51.532;7.684;2023-06-14T07:34:43;100451.84;;;21.08;nan
70468;BME280;57934;51.532;7.684;2023-06-14T07:37:09;100452.00;;;20.91;nan
70468;BME280;57934;51.532;7.684;2023-06-14T07:39:35;100447.09;;;20.19;nan
70468;BME280;57934;51.532;7.684;2023-06-14T07:42:01;100453.09;;;20.58;nan
70468;BME280;57934;51.532;7.684;2023-06-14T07:44:29;100452.84;;;20.92;nan
70468;BME280;57934;51.532;7.684;2023-06-14T07:46:56;100450.09;;;20.82;nan
70468;BME280;57934;51.532;7.684;2023-06-14T07:49:25;100449.81;;;20.83;nan
70468;BME280;57934;51.532;7.684;2023-06-14T07:51:51;100450.75;;;20.99;nan
70468;BME280;57934;51.532;7.684;2023-06-14T07:54:17;100436.88;;;21.60;nan
70468;BME280;57934;51.532;7.684;2023-06-14T07:56:43;100448.50;;;21.96;nan
70468;BME280;57934;51.532;7.684;2023-06-14T07:59:09;100456.69;;;21.49;nan
70468;BME280;57934;51.532;7.684;2023-06-14T08:01:35;100467.56;;;21.89;nan
70468;BME280;57934;51.532;7.684;2023-06-14T08:04:01;100456.00;;;21.89;nan
70468;BME280;57934;51.532;7.684;2023-06-14T08:06:27;100447.78;;;22.21;nan
70468;BME280;57934;51.532;7.684;2023-06-14T08:08:53;100444.88;;;22.69;nan
70468;BME280;57934;51.532;7.684;2023-06-14T08:11:19;100448.91;;;23.82;nan
70468;BME280;57934;51.532;7.684;2023-06-14T08:13:45;100456.41;;;24.35;nan
70468;BME280;57934;51.532;7.684;2023-06-14T08:16:11;100459.78;;;23.51;nan
70468;BME280;57934;51.532;7.684;2023-06-14T08:18:37;100457.03;;;23.77;nan
70468;BME280;57934;51.532;7.684;2023-06-14T08:21:03;100454.56;;;22.75;nan
70468;BME280;57934;51.532;7.684;2023-06-14T08:23:29;100451.06;;;22.64;nan
70468;BME280;57934;51.532;7.684;2023-06-14T08:25:56;100452.94;;;24.97;nan
70468;BME280;57934;51.532;7.684;2023-06-14T08:28:24;100441.00;;;25.52;nan
70468;BME280;57934;51.532;7.684;2023-06-14T08:30:50;100458.13;;;24.60;nan
70468;BME280;57934;51.532;7.684;2023-06-14T08:33:16;100457.06;;;24.90;nan
70468;BME280;57934;51.532;7.684;2023-06-14T08:35:42;100451.31;;;25.92;nan
70468;BME280;57934;51.532;7.684;2023-06-14T08:38:10;100450.13;;;27.02;nan
70468;BME280;57934;51.532;7.684;2023-06-14T08:40:37;100456.03;;;25.39;nan
70468;BME280;57934;51.532;7.684;2023-06-14T08:43:04;100457.63;;;24.58;nan
70468;BME280;57934;51.532;7.684;2023-06-14T08:45:30;100455.06;;;25.73;nan
70468;BME280;57934;51.532;7.684;2023-06-14T08:47:56;100460.09;;;24.49;nan
70468;BME280;57934;51.532;7.684;2023-06-14T08:50:25;100448.63;;;25.26;nan
70468;BME280;57934;51.532;7.684;2023-06-14T08:52:58;100461.78;;;25.32;nan
70468;BME280;57934;51.532;7.684;2023-06-14T08:55:29;100458.63;;;28.05;nan
70468;BME280;57934;51.532;7.684;2023-06-14T08:57:57;100452.56;;;26.00;nan
70468;BME280;57934;51.532;7.684;2023-06-14T09:00:24;100452.34;;;27.00;nan
70468;BME280;57934;51.532;7.684;2023-06-14T09:02:51;100455.19;;;27.22;nan
70468;BME280;57934;51.532;7.684;2023-06-14T09:05:23;100457.44;;;26.55;nan
70468;BME280;57934;51.532;7.684;2023-06-14T09:07:49;100462.44;;;25.67;nan
70468;BME280;57934;51.532;7.684;2023-06-14T09:10:16;100457.22;;;26.51;nan
70468;BME280;57934;51.532;7.684;2023-06-14T09:12:42;100466.47;;;25.21;nan
70468;BME280;57934;51.532;7.684;2023-06-14T09:15:09;100456.34;;;26.56;nan
70468;BME280;57934;51.532;7.684;2023-06-14T09:17:36;100456.06;;;26.57;nan
70468;BME280;57934;51.532;7.684;2023-06-14T09:20:03;100462.06;;;27.01;nan
70468;BME280;57934;51.532;7.684;2023-06-14T09:22:35;100467.84;;;25.67;nan
70468;BME280;57934;51.532;7.684;2023-06-14T09:25:01;100462.56;;;26.00;nan
70468;BME280;57934;51.532;7.684;2023-06-14T09:27:28;100465.56;;;26.55;nan
70468;BME280;57934;51.532;7.684;2023-06-14T09:29:54;100470.19;;;25.74;nan
70468;BME280;57934;51.532;7.684;2023-06-14T09:32:21;100466.50;;;25.45;nan
70468;BME280;57934;51.532;7.684;2023-06-14T09:34:48;100474.13;;;25.14;nan
70468;BME280;57934;51.532;7.684;2023-06-14T09:37:30;100477.66;;;25.10;nan
70468;BME280;57934;51.532;7.684;2023-06-14T09:39:56;100474.03;;;27.14;nan
70468;BME280;57934;51.532;7.684;2023-06-14T09:42:23;100481.75;;;27.20;nan
70468;BME280;57934;51.532;7.684;2023-06-14T09:44:53;100471.13;;;27.51;nan
70468;BME280;57934;51.532;7.684;2023-06-14T09:47:20;100483.06;;;27.23;nan
70468;BME280;57934;51.532;7.684;2023-06-14T09:49:47;100481.31;;;28.32;nan
70468;BME280;57934;51.532;7.684;2023-06-14T09:52:16;100484.44;;;27.06;nan
70468;BME280;57934;51.532;7.684;2023-06-14T09:54:44;100472.88;;;27.01;nan
70468;BME280;57934;51.532;7.684;2023-06-14T09:57:14;100473.53;;;27.94;nan
70468;BME280;57934;51.532;7.684;2023-06-14T09:59:44;100471.81;;;27.98;nan
70468;BME280;57934;51.532;7.684;2023-06-14T10:02:34;100478.84;;;28.22;nan
70468;BME280;57934;51.532;7.684;2023-06-14T10:05:06;100471.06;;;26.82;nan
70468;BME280;57934;51.532;7.684;2023-06-14T10:07:38;100481.06;;;27.15;nan
70468;BME280;57934;51.532;7.684;2023-06-14T10:10:06;100480.19;;;28.11;nan
70468;BME280;57934;51.532;7.684;2023-06-14T10:12:33;100474.88;;;26.95;nan
70468;BME280;57934;51.532;7.684;2023-06-14T10:14:59;100472.66;;;26.83;nan
70468;BME280;57934;51.532;7.684;2023-06-14T10:22:52;100481.44;;;26.05;nan
70468;BME280;57934;51.532;7.684;2023-06-14T10:25:27;100466.25;;;28.03;nan
70468;BME280;57934;51.532;7.684;2023-06-14T10:28:20;100465.22;;;27.63;nan
70468;BME280;57934;51.532;7.684;2023-06-14T10:31:07;100472.03;;;28.69;nan
70468;BME280;57934;51.532;7.684;2023-06-14T10:33:35;100467.63;;;29.05;nan
70468;BME280;57934;51.532;7.684;2023-06-14T10:36:09;100461.56;;;27.95;nan
70468;BME280;57934;51.532;7.684;2023-06-14T10:38:39;100468.19;;;28.93;nan
70468;BME280;57934;51.532;7.684;2023-06-14T10:41:05;100481.66;;;28.53;nan
70468;BME280;57934;51.532;7.684;2023-06-14T10:43:32;100465.97;;;29.92;nan
70468;BME280;57934;51.532;7.684;2023-06-14T10:46:14;100468.88;;;28.76;nan
70468;BME280;57934;51.532;7.684;2023-06-14T10:48:41;100468.47;;;27.05;nan
70468;BME280;57934;51.532;7.684;2023-06-14T10:51:18;100470.81;;;27.94;nan
70468;BME280;57934;51.532;7.684;2023-06-14T10:53:51;100465.72;;;28.83;nan
70468;BME280;57934;51.532;7.684;2023-06-14T10:56:26;100460.22;;;30.02;nan
70468;BME280;57934;51.532;7.684;2023-06-14T10:58:52;100461.00;;;27.43;nan
70468;BME280;57934;51.532;7.684;2023-06-14T11:01:28;100470.41;;;27.73;nan
70468;BME280;57934;51.532;7.684;2023-06-14T11:04:06;100465.50;;;29.41;nan
70468;BME280;57934;51.532;7.684;2023-06-14T11:06:45;100461.78;;;27.85;nan
70468;BME280;57934;51.532;7.684;2023-06-14T11:09:50;100465.59;;;29.19;nan
70468;BME280;57934;51.532;7.684;2023-06-14T11:12:20;100460.34;;;29.22;nan
70468;BME280;57934;51.532;7.684;2023-06-14T11:14:47;100460.97;;;29.19;nan
70468;BME280;57934;51.532;7.684;2023-06-14T11:17:13;100453.81;;;28.02;nan
70468;BME280;57934;51.532;7.684;2023-06-14T11:19:39;100457.97;;;29.21;nan
70468;BME280;57934;51.532;7.684;2023-06-14T11:22:05;100459.91;;;28.44;nan
70468;BME280;57934;51.532;7.684;2023-06-14T11:24:32;100450.25;;;29.14;nan
70468;BME280;57934;51.532;7.684;2023-06-14T11:26:58;100458.44;;;28.24;nan
70468;BME280;57934;51.532;7.684;2023-06-14T11:29:24;100460.00;;;27.25;nan
70468;BME280;57934;51.532;7.684;2023-06-14T11:31:50;100445.88;;;28.28;nan
70468;BME280;57934;51.532;7.684;2023-06-14T11:34:17;100454.78;;;29.28;nan
70468;BME280;57934;51.532;7.684;2023-06-14T11:36:43;100451.34;;;29.05;nan
70468;BME280;57934;51.532;7.684;2023-06-14T11:39:09;100452.69;;;30.51;nan
70468;BME280;57934;51.532;7.684;2023-06-14T11:41:41;100460.03;;;28.62;nan
70468;BME280;57934;51.532;7.684;2023-06-14T11:44:07;100454.94;;;28.01;nan
70468;BME280;57934;51.532;7.684;2023-06-14T11:46:34;100449.44;;;27.51;nan
70468;BME280;57934;51.532;7.684;2023-06-14T11:49:01;100449.97;;;27.40;nan
70468;BME280;57934;51.532;7.684;2023-06-14T11:51:30;100444.66;;;28.35;nan
70468;BME280;57934;51.532;7.684;2023-06-14T11:53:57;100455.53;;;29.11;nan
70468;BME280;57934;51.532;7.684;2023-06-14T11:56:24;100452.09;;;29.36;nan
70468;BME280;57934;51.532;7.684;2023-06-14T11:58:52;100454.88;;;28.60;nan
70468;BME280;57934;51.532;7.684;2023-06-14T12:01:18;100442.47;;;26.76;nan
70468;BME280;57934;51.532;7.684;2023-06-14T12:03:52;100446.22;;;25.67;nan
70468;BME280;57934;51.532;7.684;2023-06-14T12:06:29;100452.94;;;24.68;nan
70468;BME280;57934;51.532;7.684;2023-06-14T12:08:58;100457.53;;;24.68;nan
70468;BME280;57934;51.532;7.684;2023-06-14T12:11:31;100456.34;;;24.05;nan
70468;BME280;57934;51.532;7.684;2023-06-14T12:13:58;100449.75;;;24.22;nan
70468;BME280;57934;51.532;7.684;2023-06-14T12:16:30;100451.38;;;24.18;nan
70468;BME280;57934;51.532;7.684;2023-06-14T12:19:00;100450.94;;;24.05;nan
70468;BME280;57934;51.532;7.684;2023-06-14T12:21:26;100455.25;;;24.07;nan
70468;BME280;57934;51.532;7.684;2023-06-14T12:23:54;100456.94;;;23.92;nan
70468;BME280;57934;51.532;7.684;2023-06-14T12:26:20;100454.22;;;23.97;nan
70468;BME280;57934;51.532;7.684;2023-06-14T12:28:47;100455.72;;;23.69;nan
70468;BME280;57934;51.532;7.684;2023-06-14T12:31:15;100446.94;;;23.98;nan
70468;BME280;57934;51.532;7.684;2023-06-14T12:33:42;100457.59;;;23.69;nan
70468;BME280;57934;51.532;7.684;2023-06-14T12:36:09;100450.50;;;23.83;nan
70468;BME280;57934;51.532;7.684;2023-06-14T12:38:36;100452.56;;;23.42;nan
70468;BME280;57934;51.532;7.684;2023-06-14T12:41:03;100451.16;;;23.54;nan
70468;BME280;57934;51.532;7.684;2023-06-14T12:43:29;100452.50;;;23.57;nan
70468;BME280;57934;51.532;7.684;2023-06-14T12:45:55;100438.69;;;23.79;nan
70468;BME280;57934;51.532;7.684;2023-06-14T12:48:22;100449.50;;;23.74;nan
70468;BME280;57934;51.532;7.684;2023-06-14T12:50:48;100440.13;;;23.56;nan
70468;BME280;57934;51.532;7.684;2023-06-14T12:53:14;100451.94;;;23.70;nan
70468;BME280;57934;51.532;7.684;2023-06-14T12:55:40;100448.25;;;23.41;nan
70468;BME280;57934;51.532;7.684;2023-06-14T12:58:06;100443.41;;;23.38;nan
70468;BME280;57934;51.532;7.684;2023-06-14T13:00:32;100441.19;;;23.55;nan
70468;BME280;57934;51.532;7.684;2023-06-14T13:02:58;100446.31;;;23.56;nan
70468;BME280;57934;51.532;7.684;2023-06-14T13:05:24;100439.75;;;23.83;nan
70468;BME280;57934;51.532;7.684;2023-06-14T13:07:50;100450.00;;;23.76;nan
70468;BME280;57934;51.532;7.684;2023-06-14T13:10:17;100446.00;;;23.73;nan
70468;BME280;57934;51.532;7.684;2023-06-14T13:12:43;100449.59;;;23.48;nan
70468;BME280;57934;51.532;7.684;2023-06-14T13:15:09;100453.03;;;23.54;nan
70468;BME280;57934;51.532;7.684;2023-06-14T13:17:36;100446.81;;;23.64;nan
70468;BME280;57934;51.532;7.684;2023-06-14T13:20:06;100460.16;;;23.94;nan